createdAt,value
2022-12-26T00:01:24.163Z,2.50
2022-12-26T00:03:50.909Z,2.47
2022-12-26T00:06:21.734Z,2.30
2022-12-26T00:08:49.540Z,2.80
2022-12-26T00:11:16.976Z,3.20
2022-12-26T00:13:44.771Z,2.90
2022-12-26T00:16:17.425Z,3.27
2022-12-26T00:18:45.071Z,2.87
2022-12-26T00:21:13.739Z,3.33
2022-12-26T00:23:40.939Z,2.53
2022-12-26T00:26:14.350Z,3.20
2022-12-26T00:28:41.165Z,2.50
2022-12-26T00:31:14.787Z,2.60
2022-12-26T00:33:41.776Z,2.40
2022-12-26T00:36:15.030Z,2.33
2022-12-26T00:38:45.641Z,2.40
2022-12-26T00:41:13.349Z,3.10
2022-12-26T00:43:40.027Z,2.17
2022-12-26T00:46:07.982Z,2.33
2022-12-26T00:48:34.920Z,3.03
2022-12-26T00:51:03.047Z,2.50
2022-12-26T00:53:29.711Z,2.20
2022-12-26T00:55:56.391Z,2.50
2022-12-26T00:58:23.553Z,2.23
2022-12-26T01:00:51.009Z,2.87
2022-12-26T01:03:18.132Z,2.40
2022-12-26T01:05:50.496Z,2.20
2022-12-26T01:08:24.542Z,2.67
2022-12-26T01:10:55.636Z,2.40
2022-12-26T01:13:22.219Z,1.70
2022-12-26T01:15:52.973Z,2.30
2022-12-26T01:18:23.279Z,2.70
2022-12-26T01:20:49.891Z,2.60
2022-12-26T01:23:18.115Z,2.10
2022-12-26T01:26:16.652Z,2.70
2022-12-26T01:28:31.312Z,2.13
2022-12-26T01:31:04.908Z,2.20
2022-12-26T01:33:35.679Z,1.93
2022-12-26T01:36:02.512Z,2.17
2022-12-26T01:38:29.074Z,2.30
2022-12-26T01:41:16.580Z,2.83
2022-12-26T01:44:05.477Z,2.47
2022-12-26T01:46:38.089Z,2.30
2022-12-26T01:49:15.474Z,3.07
2022-12-26T01:51:49.713Z,2.40
2022-12-26T01:54:39.703Z,2.80
2022-12-26T01:57:10.238Z,2.47
2022-12-26T01:59:39.940Z,2.47
2022-12-26T02:02:07.277Z,2.50
2022-12-26T02:04:58.149Z,2.53
2022-12-26T02:07:28.011Z,2.30
2022-12-26T02:09:55.773Z,2.13
2022-12-26T02:12:38.435Z,2.80
2022-12-26T02:15:11.059Z,2.67
2022-12-26T02:17:39.922Z,1.97
2022-12-26T02:20:25.660Z,2.30
2022-12-26T02:23:07.271Z,2.07
2022-12-26T02:25:45.930Z,2.03
2022-12-26T02:28:40.090Z,2.63
2022-12-26T02:31:26.476Z,2.20
2022-12-26T02:34:02.171Z,2.40
2022-12-26T02:36:57.786Z,2.23
2022-12-26T02:39:47.717Z,2.20
2022-12-26T02:42:25.267Z,2.83
2022-12-26T02:45:25.894Z,2.30
2022-12-26T02:48:23.529Z,2.90
2022-12-26T02:51:25.355Z,2.07
2022-12-26T02:54:25.725Z,2.33
2022-12-26T02:57:12.892Z,2.10
2022-12-26T03:00:17.648Z,2.13
2022-12-26T03:03:08.479Z,2.73
2022-12-26T03:06:13.527Z,2.03
2022-12-26T03:09:05.849Z,2.20
2022-12-26T03:12:00.388Z,2.40
2022-12-26T03:14:37.251Z,2.73
2022-12-26T03:17:22.547Z,2.90
2022-12-26T03:20:00.136Z,2.73
2022-12-26T03:22:39.455Z,2.43
2022-12-26T03:25:33.635Z,1.77
2022-12-26T03:28:00.372Z,2.57
2022-12-26T03:30:45.788Z,2.23
2022-12-26T03:33:31.148Z,2.60
2022-12-26T03:35:58.952Z,2.30
2022-12-26T03:38:34.490Z,2.27
2022-12-26T03:41:25.825Z,1.90
2022-12-26T03:44:37.211Z,2.07
2022-12-26T03:47:46.093Z,3.00
2022-12-26T03:50:48.418Z,3.10
2022-12-26T03:53:41.712Z,2.57
2022-12-26T03:56:32.526Z,2.40
2022-12-26T03:59:25.564Z,2.60
2022-12-26T04:02:11.741Z,2.63
2022-12-26T04:05:00.112Z,2.13
2022-12-26T04:07:56.580Z,2.27
2022-12-26T04:10:51.829Z,2.20
2022-12-26T04:13:40.770Z,10.00
2022-12-26T04:16:37.148Z,40.60
2022-12-26T04:19:25.156Z,30.50
2022-12-26T04:22:30.923Z,7.30
2022-12-26T04:25:48.540Z,3.00
2022-12-26T04:28:36.909Z,3.30
2022-12-26T04:31:27.192Z,2.57
2022-12-26T04:34:20.050Z,2.80
2022-12-26T04:37:15.973Z,2.30
2022-12-26T04:40:05.576Z,2.43
2022-12-26T04:42:51.715Z,2.17
2022-12-26T04:45:20.486Z,2.90
2022-12-26T04:48:06.569Z,2.37
2022-12-26T04:50:33.403Z,2.00
2022-12-26T04:53:00.781Z,2.43
2022-12-26T04:55:29.825Z,2.47
2022-12-26T04:57:56.903Z,2.40
2022-12-26T05:00:25.667Z,1.77
2022-12-26T05:03:16.257Z,2.50
2022-12-26T05:06:09.670Z,1.80
2022-12-26T05:09:01.213Z,2.40
2022-12-26T05:11:31.169Z,2.43
2022-12-26T05:14:01.562Z,2.87
2022-12-26T05:16:47.023Z,2.53
2022-12-26T05:19:36.268Z,2.50
2022-12-26T05:22:22.977Z,2.10
2022-12-26T05:25:09.198Z,2.80
2022-12-26T05:27:56.344Z,1.97
2022-12-26T05:30:23.233Z,3.00
2022-12-26T05:33:08.662Z,2.47
2022-12-26T05:35:35.776Z,2.93
2022-12-26T05:38:03.301Z,2.17
2022-12-26T05:40:32.488Z,2.17
2022-12-26T05:43:00.336Z,2.20
2022-12-26T05:45:28.877Z,2.30
2022-12-26T05:48:02.238Z,2.23
2022-12-26T05:50:29.176Z,2.43
2022-12-26T05:52:59.308Z,2.17
2022-12-26T05:55:27.357Z,2.10
2022-12-26T05:57:53.979Z,2.60
2022-12-26T06:00:21.221Z,2.87
2022-12-26T06:02:48.785Z,2.57
2022-12-26T06:05:17.100Z,1.87
2022-12-26T06:07:45.678Z,2.37
2022-12-26T06:10:12.539Z,2.83
2022-12-26T06:12:39.115Z,2.53
2022-12-26T06:15:06.150Z,2.00
2022-12-26T06:17:34.526Z,1.80
2022-12-26T06:20:04.004Z,2.80
2022-12-26T06:22:31.295Z,2.93
2022-12-26T06:24:57.808Z,2.83
2022-12-26T06:27:24.512Z,2.50
2022-12-26T06:29:51.248Z,2.70
2022-12-26T06:32:17.912Z,2.53
2022-12-26T06:34:44.468Z,3.03
2022-12-26T06:37:11.052Z,2.73
2022-12-26T06:39:37.529Z,2.60
2022-12-26T06:42:05.508Z,2.77
2022-12-26T06:44:32.298Z,3.37
2022-12-26T06:46:59.390Z,2.70
2022-12-26T06:49:32.360Z,2.80
2022-12-26T06:52:01.384Z,2.90
2022-12-26T06:54:27.946Z,2.90
2022-12-26T06:56:55.609Z,3.00
2022-12-26T06:59:22.398Z,2.00
2022-12-26T07:01:49.348Z,2.90
2022-12-26T07:04:17.372Z,2.77
2022-12-26T07:06:44.461Z,2.10
2022-12-26T07:09:17.089Z,2.83
2022-12-26T07:11:47.954Z,1.90
2022-12-26T07:14:15.660Z,2.20
2022-12-26T07:16:43.859Z,2.00
2022-12-26T07:19:13.740Z,2.60
2022-12-26T07:21:41.292Z,2.33
2022-12-26T07:24:15.087Z,2.30
2022-12-26T07:26:45.142Z,1.63
2022-12-26T07:29:14.863Z,2.43
2022-12-26T07:31:42.479Z,1.97
2022-12-26T07:34:09.733Z,2.40
2022-12-26T07:36:36.637Z,2.47
2022-12-26T07:39:03.470Z,2.70
2022-12-26T07:41:50.431Z,2.40
2022-12-26T07:44:17.591Z,2.27
2022-12-26T07:46:46.673Z,2.30
2022-12-26T07:49:13.451Z,2.80
2022-12-26T07:51:40.982Z,2.80
2022-12-26T07:54:11.352Z,2.17
2022-12-26T07:56:38.411Z,2.40
2022-12-26T07:59:08.075Z,2.30
2022-12-26T08:01:35.188Z,2.60
2022-12-26T08:04:02.201Z,2.63
2022-12-26T08:06:30.507Z,3.10
2022-12-26T08:08:57.061Z,3.07
2022-12-26T08:11:24.268Z,2.70
2022-12-26T08:13:51.936Z,2.77
2022-12-26T08:16:19.851Z,2.97
2022-12-26T08:18:46.643Z,2.10
2022-12-26T08:21:13.795Z,2.87
2022-12-26T08:23:40.799Z,2.37
2022-12-26T08:26:11.355Z,2.50
2022-12-26T08:28:41.919Z,3.00
2022-12-26T08:31:12.772Z,3.00
2022-12-26T08:33:40.892Z,2.63
2022-12-26T08:36:10.348Z,2.87
2022-12-26T08:38:39.230Z,2.80
2022-12-26T08:41:06.164Z,3.30
2022-12-26T08:44:03.038Z,2.87
2022-12-26T08:46:20.988Z,2.20
2022-12-26T08:48:48.227Z,2.20
2022-12-26T08:51:25.482Z,3.13
2022-12-26T08:53:54.333Z,3.20
2022-12-26T08:56:26.336Z,2.33
2022-12-26T08:58:54.846Z,2.30
2022-12-26T09:01:32.565Z,2.03
2022-12-26T09:04:05.067Z,2.00
2022-12-26T09:06:36.224Z,2.67
2022-12-26T09:09:05.333Z,2.73
2022-12-26T09:11:33.694Z,2.90
2022-12-26T09:14:04.494Z,3.30
2022-12-26T09:16:42.967Z,3.77
2022-12-26T09:19:14.643Z,2.70
2022-12-26T09:21:42.032Z,3.20
2022-12-26T09:24:15.160Z,2.70
2022-12-26T09:26:42.622Z,2.77
2022-12-26T09:29:12.974Z,3.37
2022-12-26T09:31:47.047Z,3.50
2022-12-26T09:34:13.608Z,2.87
2022-12-26T09:36:40.635Z,2.77
2022-12-26T09:39:09.394Z,2.90
2022-12-26T09:42:03.813Z,2.80
2022-12-26T09:44:52.926Z,2.37
2022-12-26T09:47:36.860Z,2.90
2022-12-26T09:50:13.292Z,4.37
2022-12-26T09:52:55.340Z,2.93
2022-12-26T09:55:39.055Z,2.30
2022-12-26T09:58:29.015Z,2.97
2022-12-26T10:01:24.059Z,3.53
2022-12-26T10:03:54.376Z,2.97
2022-12-26T10:06:30.738Z,3.07
2022-12-26T10:09:31.864Z,2.30
2022-12-26T10:11:59.413Z,2.67
2022-12-26T10:14:35.337Z,2.80
2022-12-26T10:17:09.354Z,2.63
2022-12-26T10:19:53.123Z,3.40
2022-12-26T10:22:51.332Z,2.70
2022-12-26T10:25:31.932Z,2.47
2022-12-26T10:28:02.488Z,2.40
2022-12-26T10:30:36.244Z,2.63
2022-12-26T10:33:10.461Z,2.63
2022-12-26T10:35:45.893Z,2.90
2022-12-26T10:38:27.481Z,2.40
2022-12-26T10:40:56.965Z,3.40
2022-12-26T10:43:32.225Z,2.60
2022-12-26T10:46:01.922Z,2.80
2022-12-26T10:48:32.076Z,2.50
2022-12-26T10:51:00.693Z,2.23
2022-12-26T10:53:29.182Z,3.40
2022-12-26T10:55:57.529Z,2.37
2022-12-26T10:58:35.133Z,3.23
2022-12-26T11:01:27.889Z,3.10
2022-12-26T11:04:00.765Z,2.30
2022-12-26T11:06:40.977Z,2.50
2022-12-26T11:09:11.308Z,2.57
2022-12-26T11:11:48.617Z,3.30
2022-12-26T11:14:31.708Z,3.10
2022-12-26T11:17:05.365Z,2.80
2022-12-26T11:19:35.644Z,2.87
2022-12-26T11:22:32.034Z,3.60
2022-12-26T11:25:26.133Z,2.33
2022-12-26T11:27:59.631Z,2.70
2022-12-26T11:30:26.325Z,3.13
2022-12-26T11:33:31.674Z,2.83
2022-12-26T11:36:09.397Z,2.17
2022-12-26T11:38:47.553Z,3.23
2022-12-26T11:41:32.400Z,2.73
2022-12-26T11:44:19.277Z,2.00
2022-12-26T11:47:08.984Z,2.67
2022-12-26T11:49:41.881Z,3.10
2022-12-26T11:52:42.682Z,3.03
2022-12-26T11:55:30.899Z,2.50
2022-12-26T11:58:07.077Z,3.00
2022-12-26T12:00:36.084Z,3.00
2022-12-26T12:03:04.666Z,3.03
2022-12-26T12:05:38.169Z,3.07
2022-12-26T12:08:15.581Z,3.33
2022-12-26T12:11:12.870Z,3.27
2022-12-26T12:14:01.695Z,2.80
2022-12-26T12:16:48.113Z,3.20
2022-12-26T12:19:51.782Z,3.63
2022-12-26T12:22:27.904Z,2.80
2022-12-26T12:25:22.301Z,2.87
2022-12-26T12:28:00.999Z,2.77
2022-12-26T12:30:55.857Z,3.17
2022-12-26T12:33:50.744Z,3.17
2022-12-26T12:36:44.318Z,3.90
2022-12-26T12:39:29.395Z,2.50
2022-12-26T12:42:04.481Z,1.90
2022-12-26T12:44:56.863Z,2.60
2022-12-26T12:47:54.180Z,1.97
2022-12-26T12:50:39.021Z,3.07
2022-12-26T12:53:39.923Z,2.60
2022-12-26T12:56:55.374Z,2.57
2022-12-26T13:00:02.058Z,2.60
2022-12-26T13:02:35.555Z,2.50
2022-12-26T13:05:13.935Z,2.40
2022-12-26T13:07:47.214Z,2.60
2022-12-26T13:10:25.725Z,4.60
2022-12-26T13:12:53.165Z,2.80
2022-12-26T13:15:27.823Z,2.73
2022-12-26T13:18:30.153Z,2.60
2022-12-26T13:21:12.421Z,2.40
2022-12-26T13:24:27.746Z,3.50
2022-12-26T13:27:11.927Z,3.03
2022-12-26T13:29:41.668Z,3.00
2022-12-26T13:32:19.639Z,2.70
2022-12-26T13:34:46.699Z,3.37
2022-12-26T13:37:35.236Z,2.67
2022-12-26T13:40:04.399Z,2.67
2022-12-26T13:42:55.273Z,3.03
2022-12-26T13:45:42.464Z,2.70
2022-12-26T13:48:15.553Z,3.57
2022-12-26T13:50:55.733Z,3.23
2022-12-26T13:53:25.872Z,3.13
2022-12-26T13:55:59.400Z,2.73
2022-12-26T13:58:39.838Z,3.20
2022-12-26T14:01:34.069Z,2.70
2022-12-26T14:04:24.250Z,2.53
2022-12-26T14:07:03.029Z,3.17
2022-12-26T14:09:52.242Z,2.93
2022-12-26T14:12:40.346Z,3.20
2022-12-26T14:15:34.668Z,2.17
2022-12-26T14:18:24.799Z,2.90
2022-12-26T14:21:17.011Z,2.80
2022-12-26T14:23:53.537Z,3.97
2022-12-26T14:26:50.285Z,3.20
2022-12-26T14:29:56.287Z,3.53
2022-12-26T14:32:29.648Z,5.30
2022-12-26T14:35:01.616Z,3.73
2022-12-26T14:37:47.045Z,3.93
2022-12-26T14:40:35.369Z,3.13
2022-12-26T14:43:15.007Z,3.73
2022-12-26T14:45:47.233Z,2.20
2022-12-26T14:48:16.453Z,3.30
2022-12-26T14:50:50.093Z,3.67
2022-12-26T14:53:34.020Z,5.07
2022-12-26T14:56:20.627Z,2.73
2022-12-26T14:58:48.355Z,4.17
2022-12-26T15:01:22.954Z,3.37
2022-12-26T15:04:25.856Z,2.50
2022-12-26T15:07:24.675Z,3.70
2022-12-26T15:10:23.541Z,3.60
2022-12-26T15:13:05.298Z,3.20
2022-12-26T15:15:35.635Z,2.83
2022-12-26T15:18:08.438Z,3.20
2022-12-26T15:20:49.995Z,4.80
2022-12-26T15:23:31.093Z,5.33
2022-12-26T15:26:18.047Z,4.97
2022-12-26T15:28:47.855Z,4.40
2022-12-26T15:31:27.699Z,4.50
2022-12-26T15:34:08.254Z,5.17
2022-12-26T15:36:50.512Z,4.93
2022-12-26T15:39:29.520Z,4.47
2022-12-26T15:42:23.676Z,5.20
2022-12-26T15:45:31.476Z,4.70
2022-12-26T15:48:27.865Z,5.50
2022-12-26T15:51:24.322Z,6.57
2022-12-26T15:54:25.731Z,5.73
2022-12-26T15:57:01.475Z,5.47
2022-12-26T16:00:21.080Z,4.97
2022-12-26T16:03:35.353Z,4.67
2022-12-26T16:06:13.215Z,4.70
2022-12-26T16:08:59.215Z,3.77
2022-12-26T16:11:32.202Z,4.93
2022-12-26T16:14:04.638Z,4.80
2022-12-26T16:16:35.248Z,4.57
2022-12-26T16:19:23.730Z,4.30
2022-12-26T16:22:21.932Z,6.10
2022-12-26T16:24:53.601Z,5.20
2022-12-26T16:27:27.402Z,8.47
2022-12-26T16:30:11.324Z,6.10
2022-12-26T16:32:49.868Z,6.07
2022-12-26T16:35:35.747Z,4.90
2022-12-26T16:38:06.025Z,6.13
2022-12-26T16:40:38.827Z,5.80
2022-12-26T16:43:14.680Z,5.60
2022-12-26T16:45:42.954Z,7.03
2022-12-26T16:48:16.240Z,6.63
2022-12-26T16:50:50.896Z,5.70
2022-12-26T16:53:36.915Z,5.87
2022-12-26T16:56:34.508Z,6.10
2022-12-26T16:59:17.857Z,7.57
2022-12-26T17:01:55.208Z,6.00
2022-12-26T17:04:27.513Z,5.57
2022-12-26T17:07:16.563Z,7.23
2022-12-26T17:09:46.083Z,6.93
2022-12-26T17:12:37.784Z,7.50
2022-12-26T17:15:07.355Z,5.70
2022-12-26T17:17:37.939Z,5.40
2022-12-26T17:20:28.000Z,5.80
2022-12-26T17:22:56.798Z,7.13
2022-12-26T17:25:30.477Z,6.10
2022-12-26T17:28:21.264Z,5.50
2022-12-26T17:30:50.116Z,7.17
2022-12-26T17:33:24.130Z,7.30
2022-12-26T17:38:44.549Z,6.20
2022-12-26T17:41:15.980Z,6.80
2022-12-26T17:43:43.308Z,7.33
2022-12-26T17:46:14.087Z,7.43
2022-12-26T17:48:44.369Z,6.67
2022-12-26T17:51:17.566Z,8.40
2022-12-26T17:53:50.103Z,7.30
2022-12-26T17:56:21.938Z,6.23
2022-12-26T17:58:51.908Z,6.13
2022-12-26T18:01:21.913Z,6.60
2022-12-26T18:03:50.590Z,6.50
2022-12-26T18:06:18.441Z,6.60
2022-12-26T18:08:47.593Z,6.00
2022-12-26T18:11:20.966Z,7.30
2022-12-26T18:13:48.204Z,6.83
2022-12-26T18:16:18.189Z,6.90
2022-12-26T18:18:46.173Z,6.27
2022-12-26T18:21:19.012Z,7.67
2022-12-26T18:23:46.926Z,9.33
2022-12-26T18:26:18.911Z,8.47
2022-12-26T18:28:45.990Z,24.97
2022-12-26T18:31:17.828Z,12.63
2022-12-26T18:33:44.958Z,11.90
2022-12-26T18:36:16.907Z,12.00
2022-12-26T18:38:44.700Z,9.20
2022-12-26T18:41:17.084Z,11.63
2022-12-26T18:43:43.770Z,14.33
2022-12-26T18:46:21.786Z,14.17
2022-12-26T18:48:48.946Z,10.20
2022-12-26T18:51:15.827Z,10.33
2022-12-26T18:53:43.595Z,10.70
2022-12-26T18:56:22.578Z,16.20
2022-12-26T18:58:57.587Z,9.80
2022-12-26T19:01:25.914Z,9.30
2022-12-26T19:03:53.861Z,8.07
2022-12-26T19:06:25.307Z,5.43
2022-12-26T19:08:52.066Z,6.87
2022-12-26T19:11:19.940Z,7.00
2022-12-26T19:13:50.849Z,7.23
2022-12-26T19:16:18.032Z,8.13
2022-12-26T19:18:46.360Z,8.10
2022-12-26T19:21:15.591Z,7.43
2022-12-26T19:23:43.730Z,7.43
2022-12-26T19:26:15.699Z,7.13
2022-12-26T19:28:42.841Z,7.93
2022-12-26T19:31:11.772Z,7.83
2022-12-26T19:33:38.885Z,5.40
2022-12-26T19:36:06.826Z,5.73
2022-12-26T19:38:36.008Z,4.97
2022-12-26T19:41:09.155Z,5.23
2022-12-26T19:43:35.815Z,5.17
2022-12-26T19:46:21.412Z,5.67
2022-12-26T19:48:49.683Z,4.87
2022-12-26T19:51:17.498Z,5.00
2022-12-26T19:53:46.490Z,5.20
2022-12-26T19:56:28.889Z,5.27
2022-12-26T19:58:56.875Z,5.97
2022-12-26T20:01:31.459Z,5.53
2022-12-26T20:04:03.974Z,5.90
2022-12-26T20:06:34.273Z,7.50
2022-12-26T20:09:11.943Z,6.10
2022-12-26T20:11:47.622Z,7.03
2022-12-26T20:14:17.871Z,6.03
2022-12-26T20:17:08.263Z,7.20
2022-12-26T20:19:36.207Z,7.73
2022-12-26T20:22:04.034Z,6.57
2022-12-26T20:24:34.059Z,5.57
2022-12-26T20:27:02.719Z,5.83
2022-12-26T20:29:31.141Z,6.73
2022-12-26T20:31:58.191Z,6.90
2022-12-26T20:34:27.923Z,5.67
2022-12-26T20:36:54.878Z,5.97
2022-12-26T20:39:24.258Z,5.90
2022-12-26T20:41:53.852Z,5.87
2022-12-26T20:44:21.044Z,5.90
2022-12-26T20:46:48.026Z,6.30
2022-12-26T20:49:15.611Z,6.23
2022-12-26T20:51:44.359Z,7.00
2022-12-26T20:54:17.983Z,6.30
2022-12-26T20:56:45.382Z,7.03
2022-12-26T20:59:13.218Z,5.70
2022-12-26T21:01:43.540Z,6.00
2022-12-26T21:04:22.618Z,5.63
2022-12-26T21:06:50.686Z,6.10
2022-12-26T21:09:18.831Z,5.03
2022-12-26T21:11:49.252Z,4.93
2022-12-26T21:14:18.522Z,4.80
2022-12-26T21:16:58.046Z,4.93
2022-12-26T21:19:29.720Z,2.97
2022-12-26T21:21:58.768Z,3.03
2022-12-26T21:24:31.518Z,4.70
2022-12-26T21:27:01.172Z,3.70
2022-12-26T21:29:30.323Z,4.47
2022-12-26T21:31:58.411Z,5.30
2022-12-26T21:34:29.315Z,4.00
2022-12-26T21:37:16.465Z,3.67
2022-12-26T21:39:45.083Z,3.70
2022-12-26T21:42:13.922Z,3.40
2022-12-26T21:44:40.613Z,3.93
2022-12-26T21:47:08.705Z,3.80
2022-12-26T21:49:38.846Z,2.97
2022-12-26T21:52:08.050Z,3.33
2022-12-26T21:54:53.342Z,4.30
2022-12-26T21:57:20.639Z,3.47
2022-12-26T21:59:58.252Z,3.90
2022-12-26T22:02:50.251Z,3.07
2022-12-26T22:05:18.355Z,3.10
2022-12-26T22:07:47.829Z,4.13
2022-12-26T22:10:34.028Z,4.30
2022-12-26T22:13:03.991Z,3.10
2022-12-26T22:15:49.346Z,3.87
2022-12-26T22:18:16.378Z,2.90
2022-12-26T22:20:45.903Z,2.97
2022-12-26T22:23:14.655Z,4.00
2022-12-26T22:25:41.709Z,2.40
2022-12-26T22:28:10.252Z,3.27
2022-12-26T22:30:38.636Z,3.00
2022-12-26T22:33:05.263Z,2.93
2022-12-26T22:35:34.373Z,3.50
2022-12-26T22:38:03.046Z,2.80
2022-12-26T22:40:31.843Z,3.03
2022-12-26T22:42:59.565Z,2.73
2022-12-26T22:45:26.191Z,2.83
2022-12-26T22:47:52.974Z,3.50
2022-12-26T22:50:23.023Z,3.23
2022-12-26T22:52:50.088Z,3.00
2022-12-26T22:55:18.598Z,3.60
2022-12-26T22:57:52.791Z,3.47
2022-12-26T23:00:20.365Z,3.10
2022-12-26T23:02:49.053Z,3.00
2022-12-26T23:05:16.368Z,2.87
2022-12-26T23:07:44.448Z,2.60
2022-12-26T23:10:19.759Z,2.77
2022-12-26T23:12:50.003Z,3.07
2022-12-26T23:15:22.577Z,3.30
2022-12-26T23:18:34.185Z,2.83
2022-12-26T23:21:24.029Z,3.83
2022-12-26T23:23:53.451Z,3.77
2022-12-26T23:26:22.123Z,3.03
2022-12-26T23:29:07.763Z,3.67
2022-12-26T23:31:34.504Z,3.00
2022-12-26T23:34:01.391Z,2.43
2022-12-26T23:36:29.607Z,3.47
2022-12-26T23:38:56.342Z,4.50
2022-12-26T23:41:22.852Z,2.87
2022-12-26T23:43:49.651Z,3.33
2022-12-26T23:46:16.649Z,3.07
2022-12-26T23:48:43.158Z,4.07
2022-12-26T23:51:14.009Z,3.37
2022-12-26T23:53:42.924Z,3.30
2022-12-26T23:56:13.607Z,2.50
2022-12-26T23:58:40.642Z,2.37
